Latest METARs, TAFs and NOTAMs for MYNN


---------------------------------------------------------------------------
	(OBSERVATIONS)
MYNN 190900Z 00000KT 9999 FEW022 21/18 A3007=
MYNN 190800Z 00000KT 9999 FEW025 21/18 A3007=
MYNN 190700Z 00000KT 9999 FEW025 21/18 A3008=
---------------------------------------------------------------------------
	(TERMINAL AREA FORECAST)
MYNN 190400Z 1906/2006 VRB02KT CAVOK
    BECMG 1913/1915 100098KT 9999 SCT025=
---------------------------------------------------------------------------
	(NOTAMS)


MYNN A0012/18 PAPI LGTS RWY 10/28 U/S. 16 JAN 21:49 2018 UNTIL
    30 APR 23:59 2018. CREATED: 16 JAN 21:49 2018

MYNN A0058/18 ATS WILL ONLY ACCEPT NON-CLOSURE PLN'S TO MYSM
    MYCA MYCX MYCH MYCB MYAP MYCI MYCP MYMM MYRP MYLD MYLS DUE
    TO LACK OF COM. 28 FEB 18:00 2018 UNTIL PERM. CREATED: 28
    FEB 16:59 2018

MYNN A0068/13 VOR Y RWY 14 FEEDER RTE FM MAJUR TO MUNIE NOT AVBL
    VOR Y RWY 14 FEEDER RTE FM MELON TO MUNIE NOT AVBL. SFC -
    UNL, 19 APR 19:55 2013 UNTIL PERM. CREATED: 19 APR 19:51
    2013

MYNN A0069/13 VOR Y RWY 09 FEEDER RTE FM MAJUR TO MUSSE NOT AVBL
    REMOVE PROCEDURE NOTE 'RADAR REQUIRED' FM APP CHART. SFC
    - UNL, 19 APR 19:55 2013 UNTIL PERM. CREATED: 19 APR 19:52
    2013

MYNN A0070/13 VOR Y RWY 32 FEEDER RTE FM PRUNE TO WELKS NOT AVBL
    REMOVE PROCEDURE NOTE 'RADAR REQUIRED' FM APP CHART. SFC
    - UNL, 19 APR 19:55 2013 UNTIL PERM. CREATED: 19 APR 19:54
    2013

MYNN A0077/18 APPROACH LGTS RWY 14 U/S. DLY 2200UTC-1300UTC,
    08 MAR 22:00 2018 UNTIL 01 JUN 13:00 2018. CREATED: 08 MAR
    17:57 2018

MYNN A0092/18 CHECKLIST (A) SERIES YEAR=2010 0277 YEAR=2013 0068
    0069 0070 YEAR=2015 0108 109 YEAR=2016 0221 0266 0291 0316
    YEAR=2017 0226 0227 0259 0264 0265 0275 YEAR=2018 0007 0012
    0022 0029 0030 0054 0055 0056 0057 0058 0059 0060 0061 0077
    0085 0091 0091 0092 LATEST PUBLICATIONS SUPPLEMENT 01/2O17
    02/2017 AIP AMDT 01/16 EFFECTIVE MAY 26, 2016 AIC 03/16.
    04 APR 18:30 2018 UNTIL 30 APR 23:59 2018. CREATED: 04 APR
    18:34 2018

MYNN A0095/18 DANGER AREA (MY)D3002 ACTIVE. SFC - 500FT AMSL,
    APRIL 14-15 1200-2200UTC APRIL 17-20 1200-2200UTC, 14 APR
    12:00 2018 UNTIL 20 APR 22:00 2018. CREATED: 13 APR 15:38
    2018

MYNN A0108/15 INFORMATION LISTED IN AIC 3/2015 WITH THE EXCEPTION
    OF MYNN AND MYGF RNAV APCH PROC IN THE BAHAMAS ARE NOT AUTH
    DUE TO AIRSPACE CLASSIFICATION RESTRICTIONS. 01 JUN 18:00
    2015 UNTIL PERM. CREATED: 04 APR 19:48 2018

MYNN A0227/17 REF THE BAHAMAS AIP GEN 3.3 AIR TRAFFIC SERVICES
    AERODROME FLIGHT INFORMATION SERVICE (AFIS) WILL BE DEPICTED
    AS AFIS/ADVISORY SERVICE (AERODROME FLIGHT INFORMATION SERVICE
    / ADVISORY SERVICE) CHANGES AND UPDATES TO BE MADE IN THE
    AIP. 19 SEP 21:00 2017 UNTIL PERM. CREATED: 20 SEP 13:33
    2017

MYNN A0316/16 WIE THE DEPARTMENT OF CIVIL AVIATION BANS ALL SAMSUNG
    GALAXY NOTE 7 PHONES FROM ACFT TRAVELLING IN THE BAHAMAS.
    DEVICES MAY NOT BE TRANSPORTED BY PASSENGERS OR CREW ON THEIR
    PERSON, IN CARRY-ON BAGGAGE, OR IN CHECKED BAGGAGE ON FLIGHTS
    TO, FROM, OR WITHIN THE COMMONWEALTH OF THE BAHAMAS AND CANNOT
    BE SHIPPED AS AIR CARGO. 20 OCT 15:30 2016 UNTIL PERM. CREATED:
    20 OCT 15:12 2016

MYNN B0010/18 CHECKLIST (B) SERIES YEAR=2016 0024 0028 YEAR=2018
    0002 0007 0008 LATEST PUBLICATIONS SUPPLEMENT 01/2017 02/2017
    AIP AMDT 01/16 EFFECTIVE MAY 26, 2016 AIC 03/16. 04 APR 18:30
    2018 UNTIL 30 APR 23:59 2018. CREATED: 04 APR 18:21 2018

---------------------------------------------------------------------------